Skip to Main Content
SEARCH:
Location Air RH Dwp Precip Type Wind Speed Wind Gust Direction Pavement Temperature Date/Time
Hatem Bridge US 40 E/B 57 100 57 None 5 mph 8 mph W 59 - 59 5/25/2017 11:26:00 PM
I-270 at I-370 58 97 57 None Calm Calm N 61 - 61 5/25/2017 11:25:00 PM
I-270 at MD-109 57 100 57 None Calm Calm N 59 - 60 5/25/2017 11:25:00 PM
I-495 at American Legion Bridge 58 100 58 None Calm Calm N 61 - 61 5/25/2017 11:25:00 PM
I-68 at MD-219 51 100 51 None 13 mph 22 mph W 54 - 57 5/25/2017 11:25:00 PM
I-68 at Savage Mt 52 98 52 None Calm 21 mph W 56 - 56 5/25/2017 11:25:00 PM
I-68 at Sideling Hill 57 100 57 None Calm Calm SE 60 - 60 5/25/2017 11:25:00 PM
I-68 at WV Line 53 93 51 None 6 mph 19 mph W 58 - 60 5/25/2017 11:25:00 PM
I-695 at I-83 58 94 56 None Calm 6 mph SW 60 - 61 5/25/2017 11:25:00 PM
I-70 at Fred-Wash Co. - - - No Data Available - - No Data Available -
I-70 at I-695 57 98 56 None 5 mph 9 mph W 60 - 62 5/25/2017 11:25:00 PM
I-70 at I-81 59 100 59 None Calm 5 mph SW 60 - 60 5/25/2017 11:25:00 PM
I-70 at MD-27 56 100 56 None Calm 4 mph W 57 - 57 5/25/2017 11:25:00 PM
I-70 at MD-32 55 99 55 None Calm Calm N 59 - 60 5/25/2017 11:25:00 PM
I-83 at MD-137 59 100 59 None Calm 8 mph S 61 - 61 5/25/2017 11:25:00 PM
I-95 at I-695 NE 59 94 57 None Calm 5 mph NW 61 - 61 5/25/2017 11:27:00 PM
I-95 at Patuxent River 58 99 58 None Calm 6 mph E 60 - 61 5/25/2017 11:25:00 PM
I-95 at Tydings Bridge 57 98 57 None Calm 6 mph N 60 - 60 5/25/2017 11:25:00 PM
I-95/495 at I-295 62 88 58 None 5 mph 8 mph W 61 - 62 5/25/2017 11:25:00 PM
I-97 at MD-100 58 95 56 None 6 mph 11 mph W 60 - 61 5/25/2017 11:25:00 PM
I-97 at MD-32 57 96 56 None 12 mph 17 mph N 60 - 60 5/25/2017 11:25:00 PM
MD 20 at MD 21 59 93 57 None 7 mph 11 mph W 64 - 64 5/25/2017 11:25:00 PM
MD 231 at Patuxent River 57 97 57 None 6 mph 13 mph W 61 - 63 5/25/2017 11:25:00 PM
MD 260 at Cox Rd 58 97 57 None Calm 8 mph W 65 - 65 5/25/2017 11:25:00 PM
MD-135 at Salt Dome 50 100 50 None 6 mph 14 mph SW 56 - 56 5/25/2017 11:25:00 PM
MD-140 at MD-97 56 100 56 None Calm 7 mph W 60 - 60 5/25/2017 11:25:00 PM
MD-200 EB at Bonifant Rd 56 100 56 None Calm Calm W 58 - 59 5/25/2017 11:26:00 PM
MD-200 WB at Muncaster Mill Rd 55 97 54 None Calm Calm E 59 - 60 5/25/2017 11:26:00 PM
MD-213 at Sassafras River 59 100 59 Rain 4 mph 6 mph SW 64 - 64 5/25/2017 11:25:00 PM
MD-24 at Rock St Park 58 100 58 None Calm Calm N 60 - 60 5/25/2017 11:25:00 PM
MD-30 at PA Line 57 100 57 None 6 mph 9 mph W 62 - 62 5/25/2017 11:25:00 PM
MD-301 at MD-305 59 93 58 None 8 mph 12 mph W 63 - 64 5/25/2017 11:25:00 PM
MD-33 at Knapps Narrows Drawbridge 61 89 58 None 9 mph 19 mph W 67 - 67 5/25/2017 11:25:00 PM
MD-344 at MD-224 57 99 57 None Calm Calm N 64 - 64 5/25/2017 11:25:00 PM
MD-4 at Patuxent River 60 98 60 None - - No Data Available 62 - 63 5/25/2017 11:25:00 PM
MD-404 at Choptank River - - - No Data Available - - No Data Available -
MD-43 at MD-150 59 100 59 None 6 mph 10 mph W 62 - 62 5/25/2017 11:25:00 PM
MD-51 at Oldtown Salt Dome 57 91 54 None Calm 5 mph SW 60 - 60 5/25/2017 11:25:00 PM
MD-64 at MD-418 - - - No Data Available - - No Data Available -
US-1 at Baltimore / Harford Co. Line 57 97 56 None Calm Calm N 60 - 61 5/25/2017 11:25:00 PM
US-1 at Conowingo Dam 59 100 59 None Calm 4 mph S 63 - 63 5/25/2017 11:25:00 PM
US-13 at US-113 61 88 58 None 6 mph 14 mph SW 65 - 65 5/25/2017 11:25:00 PM
US-13 at US-50 - - - No Data Available - - No Data Available -
US-15 at MD-140 59 97 58 None Calm Calm SW 61 - 62 5/25/2017 11:25:00 PM
US-301 at MD-5 58 100 58 None Calm 5 mph NE 62 - 62 5/25/2017 11:25:00 PM
US-301 at Potomac 61 95 60 None 5 mph 8 mph W 60 - 62 5/25/2017 11:25:00 PM
US-301 on HWN Bridge 60 94 58 None 9 mph 13 mph W 59 - 59 5/25/2017 11:27:00 PM
US-340 at MD-180 58 98 58 None Calm Calm N 61 - 61 5/25/2017 11:25:00 PM
US-50 at Choptank 63 94 61 None 8 mph 12 mph W 66 - 66 5/25/2017 11:25:00 PM
US-50 at I-95 59 99 59 None Calm Calm W 61 - 63 5/25/2017 11:25:00 PM
US-50 at MD-2 58 100 58 None Calm 7 mph SW 61 - 62 5/25/2017 11:25:00 PM
US-50 at MD-331 61 90 58 None 6 mph 9 mph W 65 - 65 5/25/2017 11:25:00 PM
US-50 at OC Drawbridge 61 95 60 None Calm 15 mph S 62 - 62 5/25/2017 11:25:00 PM
US-50 at Table Rock Rd 50 100 50 None 5 mph 10 mph NW 58 - 58 5/25/2017 11:25:00 PM
US-50 Kent Narrow Bridge 60 100 60 None 6 mph 13 mph SW 63 - 63 5/25/2017 11:25:00 PM
WPL Pier 31 59 93 58 None 16 mph 19 mph W 57 - 57 5/25/2017 11:29:00 PM
Location Air RH Dwp Precip Type Wind Speed Wind Gust Direction Pavement Temperature Date/Time